Latest Weather Observations for Pound Creek

IDV60801

Issued at 11:02 pm EDT Tuesday 23 October 2018 (issued every 10 minutes, with the page automatically refreshed every 10 minutes)

About weather observations | Map of weather stations | Latest weather observations for VIC | Other Formats
Station Details ID: 085099 Name: POUND CREEK Lat: -38.63 Lon: 145.81 Height: 3.0 m
Data from the previous 72 hours. | See also: Recent months at Pound Creek
Date/Time
EDT
Temp
°C
App
Temp
°C
Dew
Point
°C
Rel
Hum
%
Delta-T
°C
Wind Press
QNH
hPa
Press
MSL
hPa
Rain since
9am
mm
Dir  Spd
km/h
Gust
km/h
Spd
kts
Gust
kts
23/11:00pm 11.4 6.7 6.1 70 2.5 SW 20 28 11 15 1020.5 1020.5 0.0
23/10:30pm 11.4 6.2 5.5 67 2.7 SW 22 32 12 17 1020.3 1020.3 0.0
23/10:00pm 11.8 5.8 5.2 64 3.0 SW 26 35 14 19 1020.0 1020.0 0.0
23/09:30pm 11.9 5.8 4.9 62 3.2 SW 26 35 14 19 1019.9 1019.9 0.0
23/09:00pm 12.3 6.0 5.9 65 3.0 SW 28 35 15 19 1019.5 1019.5 0.0
23/08:30pm 12.2 6.3 5.8 65 3.0 SW 26 33 14 18 1018.9 1018.9 0.0
23/08:00pm 12.6 6.8 6.4 66 2.9 SW 26 35 14 19 1018.6 1018.6 0.0
23/07:30pm 12.7 6.9 6.1 64 3.1 SW 26 35 14 19 1018.1 1018.1 0.0
23/07:00pm 13.0 7.0 7.2 68 2.8 SW 28 39 15 21 1017.5 1017.5 0.0
23/06:30pm 13.3 7.1 8.0 70 2.6 SW 30 39 16 21 1016.8 1016.8 0.0
23/06:00pm 13.5 7.6 7.7 68 2.8 SW 28 39 15 21 1016.3 1016.3 0.0
23/05:30pm 13.6 8.0 8.7 72 2.5 SW 28 39 15 21 1016.0 1016.0 0.0
23/05:00pm 15.2 9.8 9.6 69 2.9 SW 28 37 15 20 1015.5 1015.5 0.0
23/04:30pm 15.3 9.4 9.2 67 3.1 SW 30 39 16 21 1015.1 1015.1 0.0
23/04:00pm 14.4 9.0 9.6 73 2.5 SW 28 37 15 20 1014.8 1014.8 0.0
23/03:30pm 14.8 10.2 9.6 71 2.7 SW 24 33 13 18 1014.5 1014.5 0.0
23/03:00pm 14.4 8.8 8.6 68 2.9 WSW 28 39 15 21 1014.3 1014.3 0.0
23/02:30pm 14.9 9.4 9.3 69 2.9 WSW 28 43 15 23 1014.2 1014.2 0.0
23/02:00pm 15.4 9.9 10.6 73 2.5 WSW 30 43 16 23 1014.2 1014.2 0.0
23/01:30pm 14.8 10.3 10.2 74 2.4 WSW 24 35 13 19 1014.1 1014.1 0.0
23/01:00pm 15.7 11.4 10.9 73 2.6 WSW 24 33 13 18 1014.0 1014.0 0.0
23/12:30pm 14.1 9.2 9.9 76 2.2 SW 26 33 14 18 1013.8 1013.8 0.0
23/12:00pm 14.8 11.0 11.2 79 1.9 WSW 22 30 12 16 1013.8 1013.8 0.0
23/11:30am 15.1 10.5 11.1 77 2.1 WSW 26 32 14 17 1013.7 1013.7 0.0
23/11:00am 16.8 13.8 12.7 77 2.3 SW 20 28 11 15 1013.2 1013.2 0.0
23/10:30am 15.6 12.1 12.2 80 1.9 WSW 22 32 12 17 1013.5 1013.5 0.0
23/10:00am 15.8 12.1 11.4 75 2.4 SW 22 30 12 16 1012.7 1012.7 0.0
23/09:30am 15.8 14.8 13.5 86 1.3 WSW 11 19 6 10 1012.7 1012.7 0.0
23/09:00am 14.8 14.6 13.5 92 0.7 SW 7 9 4 5 1011.9 1011.9 0.0
23/08:30am 14.5 12.9 13.9 96 0.3 WSW 15 22 8 12 1012.6 1012.6 0.0
23/08:00am 12.8 13.1 12.3 97 0.3 NNW 2 6 1 3 1011.9 1011.9 0.0
23/07:30am 11.2 10.3 10.7 97 0.3 NNW 6 6 3 3 1011.7 1011.7 0.0
23/07:00am 9.0 8.3 8.6 97 0.2 WNW 2 7 1 4 1011.9 1011.9 0.0
23/06:30am 7.4 5.9 6.8 96 0.3 N 4 6 2 3 1011.1 1011.1 0.0
23/06:00am 9.4 8.0 8.8 96 0.3 N 6 9 3 5 1010.6 1010.6 0.0
23/05:30am 9.5 7.9 8.9 96 0.3 N 7 11 4 6 1010.3 1010.3 0.0
23/05:00am 10.8 9.5 10.0 95 0.4 N 7 11 4 6 1010.0 1010.0 0.0
23/04:30am 10.7 9.4 9.9 95 0.4 N 7 9 4 5 1010.2 1010.2 0.0
23/04:00am 10.4 9.2 9.5 94 0.5 NW 6 9 3 5 1011.0 1011.0 0.0
23/03:30am 11.0 9.4 10.1 94 0.5 WNW 9 13 5 7 1011.4 1011.4 0.0
23/03:00am 10.1 8.6 9.0 93 0.5 NW 7 13 4 7 1011.0 1011.0 0.0
23/02:30am 11.1 9.4 9.9 92 0.6 N 9 13 5 7 1010.7 1010.7 0.0
23/02:00am 12.2 10.0 10.9 92 0.7 NNE 13 15 7 8 1010.6 1010.6 0.0
23/01:30am 12.4 11.9 10.8 90 0.8 NNW 4 7 2 4 1011.2 1011.2 0.0
23/01:00am 13.4 12.7 11.5 88 1.0 WSW 6 9 3 5 1011.6 1011.6 0.0
23/12:30am 14.2 12.6 11.7 85 1.3 WSW 11 15 6 8 1012.1 1012.1 0.0
23/12:00am 14.4 12.8 11.6 83 1.5 SW 11 17 6 9 1011.5 1011.5 0.0
 
Date/Time
EDT
Temp
°C
App
Temp
°C
Dew
Point
°C
Rel
Hum
%
Delta-T
°C
Wind Press
QNH
hPa
Press
MSL
hPa
Rain since
9am
mm
Dir  Spd
km/h
Gust
km/h
Spd
kts
Gust
kts
22/11:30pm 15.0 12.4 12.0 82 1.6 SW 17 22 9 12 1011.2 1011.2 0.0
22/11:00pm 17.9 14.3 10.5 62 4.0 W 20 32 11 17 1010.7 1010.7 0.0
22/10:30pm 17.0 14.5 9.7 62 3.8 NNE 13 19 7 10 1009.1 1009.1 0.0
22/10:00pm 17.1 14.5 9.5 61 4.0 NNE 13 20 7 11 1009.2 1009.2 0.0
22/09:30pm 17.9 15.1 10.0 60 4.2 NNE 15 24 8 13 1009.3 1009.3 0.0
22/09:00pm 18.1 15.4 10.5 61 4.1 NNE 15 19 8 10 1009.6 1009.6 0.0
22/08:30pm 17.1 16.1 10.9 67 3.3 NNE 7 11 4 6 1009.6 1009.6 0.0
22/08:00pm 18.1 16.4 11.2 64 3.8 NNE 11 15 6 8 1009.6 1009.6 0.0
22/07:30pm 19.6 17.5 11.1 58 4.6 N 13 15 7 8 1009.7 1009.7 0.0
22/07:00pm 21.5 19.9 11.5 53 5.6 N 11 17 6 9 1009.5 1009.5 0.0
22/06:30pm 22.8 21.4 12.1 51 6.1 N 11 15 6 8 1009.5 1009.5 0.0
22/06:00pm 23.5 21.0 11.2 46 6.9 N 15 24 8 13 1009.3 1009.3 0.0
22/05:30pm 24.2 22.3 11.9 46 7.0 N 13 20 7 11 1009.4 1009.4 0.0
22/05:00pm 23.6 21.5 11.0 45 7.0 NNW 13 22 7 12 1009.8 1009.8 0.0
22/04:30pm 24.0 21.8 12.0 47 6.8 NNW 15 22 8 12 1009.8 1009.8 0.0
22/04:00pm 23.6 21.1 11.0 45 7.0 NNW 15 24 8 13 1010.1 1010.1 0.0
22/03:30pm 24.3 20.9 10.6 42 7.6 NNW 19 26 10 14 1010.2 1010.2 0.0
22/03:00pm 24.6 22.3 10.5 41 7.8 NW 13 22 7 12 1010.7 1010.7 0.0
22/02:30pm 24.5 21.7 11.5 44 7.3 NW 17 28 9 15 1011.0 1011.0 0.0
22/02:00pm 23.7 21.1 10.7 44 7.2 NNW 15 24 8 13 1011.5 1011.5 0.0
22/01:30pm 23.7 21.6 11.1 45 7.0 NNW 13 24 7 13 1011.7 1011.7 0.0
22/01:00pm 23.4 21.3 11.1 46 6.9 NNW 13 20 7 11 1012.1 1012.1 0.0
22/12:30pm 22.5 20.3 10.9 48 6.4 NNW 13 22 7 12 1012.4 1012.4 0.0
22/12:00pm 21.8 19.3 11.2 51 5.9 NW 15 22 8 12 1012.7 1012.7 0.0
22/11:30am 21.1 18.7 11.4 54 5.4 NNW 15 24 8 13 1013.0 1013.0 0.0
22/11:00am 20.2 17.0 10.0 52 5.5 NNW 17 24 9 13 1013.2 1013.2 0.0
22/10:30am 19.9 16.4 10.3 54 5.2 N 19 30 10 16 1013.3 1013.3 0.0
22/10:00am 18.9 16.2 10.2 57 4.7 N 15 24 8 13 1013.5 1013.5 0.0
22/09:30am 17.9 16.4 11.9 68 3.3 N 11 17 6 9 1013.9 1013.9 0.0
22/09:00am 15.4 13.4 11.6 78 2.0 NNE 13 17 7 9 1014.1 1014.1 0.0
22/08:30am 13.7 11.0 10.5 81 1.7 NNE 15 20 8 11 1014.2 1014.2 0.0
22/08:00am 12.1 8.8 9.7 85 1.2 NNE 17 24 9 13 1014.3 1014.3 0.0
22/07:30am 11.2 8.5 8.9 86 1.1 NNE 13 19 7 10 1014.3 1014.3 0.0
22/07:00am 10.1 7.3 8.4 89 0.8 NNE 13 19 7 10 1014.3 1014.3 0.0
22/06:30am 9.6 6.3 7.9 89 0.8 NNE 15 19 8 10 1014.2 1014.2 0.0
22/06:00am 9.9 6.3 8.2 89 0.8 NNE 17 22 9 12 1014.1 1014.1 0.0
22/05:30am 9.7 6.5 8.5 92 0.6 NNE 15 20 8 11 1014.1 1014.1 0.0
22/05:00am 9.3 6.0 8.2 93 0.5 NNE 15 19 8 10 1014.3 1014.3 0.0
22/04:30am 9.3 6.5 8.4 94 0.4 NNE 13 20 7 11 1014.5 1014.5 0.0
22/04:00am 9.1 6.6 8.3 95 0.4 NNE 11 20 6 11 1014.6 1014.6 0.0
22/03:30am 8.4 6.2 7.8 96 0.3 NNE 9 11 5 6 1014.8 1014.8 0.0
22/03:00am 8.6 6.8 8.0 96 0.3 NNE 7 11 4 6 1014.9 1014.9 0.0
22/02:30am 8.7 6.6 8.1 96 0.3 NNE 9 11 5 6 1015.2 1015.2 0.0
22/02:00am 9.0 6.2 8.4 96 0.3 NNE 13 17 7 9 1015.4 1015.4 0.0
22/01:30am 9.0 6.5 8.4 96 0.3 NNE 11 15 6 8 1016.0 1016.0 0.0
22/01:00am 9.4 7.4 8.8 96 0.3 NNE 9 15 5 8 1016.3 1016.3 0.0
22/12:30am 7.6 6.1 7.0 96 0.3 N 4 6 2 3 1016.7 1016.7 0.0
22/12:00am 8.2 6.9 7.6 96 0.3 NE 4 6 2 3 1016.9 1016.9 0.0
 
Date/Time
EDT
Temp
°C
App
Temp
°C
Dew
Point
°C
Rel
Hum
%
Delta-T
°C
Wind Press
QNH
hPa
Press
MSL
hPa
Rain since
9am
mm
Dir  Spd
km/h
Gust
km/h
Spd
kts
Gust
kts
21/11:30pm 8.6 7.7 7.8 95 0.4 NNE 2 4 1 2 1017.2 1017.2 0.0
21/11:00pm 9.2 8.5 8.4 95 0.4 N 2 4 1 2 1017.5 1017.5 0.0
21/10:30pm 9.2 7.7 8.4 95 0.4 N 6 6 3 3 1017.5 1017.5 0.0
21/10:00pm 9.7 8.3 8.9 95 0.4 NNE 6 7 3 4 1017.6 1017.6 0.0
21/09:30pm 9.2 8.4 8.0 92 0.6 NNW 2 4 1 2 1017.6 1017.6 0.0
21/09:00pm 10.8 9.6 9.6 92 0.6 NNW 6 7 3 4 1017.6 1017.6 0.0
21/08:30pm 11.5 10.8 10.1 91 0.7 WNW 4 6 2 3 1017.4 1017.4 0.0
21/08:00pm 11.4 9.7 9.7 89 0.9 SW 9 13 5 7 1017.4 1017.4 0.0
21/07:30pm 12.8 10.9 10.5 86 1.2 SW 11 15 6 8 1017.3 1017.3 0.0
21/07:00pm 13.8 11.2 10.6 81 1.7 SW 15 19 8 10 1017.2 1017.2 0.0
21/06:30pm 14.5 11.6 10.9 79 1.9 SW 17 22 9 12 1017.1 1017.1 0.0
21/06:00pm 15.3 12.4 9.7 69 2.9 SW 15 19 8 10 1017.2 1017.2 0.0
21/05:30pm 15.8 12.8 10.8 72 2.7 SW 17 20 9 11 1017.3 1017.3 0.0
21/05:00pm 15.5 11.9 10.7 73 2.5 SW 20 24 11 13 1017.3 1017.3 0.0
21/04:30pm 15.8 12.3 10.3 70 2.9 SW 19 26 10 14 1017.4 1017.4 0.0
21/04:00pm 16.4 13.6 11.3 72 2.7 SW 17 22 9 12 1017.4 1017.4 0.0
21/03:30pm 16.8 14.5 11.9 73 2.7 SW 15 20 8 11 1017.7 1017.7 0.0
21/03:00pm 16.9 14.8 12.4 75 2.5 SW 15 20 8 11 1018.1 1018.1 0.0
21/02:30pm 15.8 13.3 11.2 74 2.5 SSW 15 22 8 12 1018.5 1018.5 0.0
21/02:00pm 16.4 14.1 11.6 73 2.6 WSW 15 22 8 12 1018.8 1018.8 0.0
21/01:30pm 15.2 12.0 11.2 77 2.1 SW 19 26 10 14 1019.2 1019.2 0.0
21/01:00pm 16.8 14.5 12.9 78 2.2 SW 17 24 9 13 1019.1 1019.1 0.0
21/12:30pm 15.7 12.8 10.9 73 2.6 SW 17 26 9 14 1019.3 1019.3 0.0
21/12:00pm 16.4 15.1 11.3 72 2.7 WSW 9 15 5 8 1019.4 1019.4 0.0
21/11:30am 14.7 13.2 9.3 70 2.8 SSW 7 13 4 7 1019.8 1019.8 0.0
21/11:00am 14.1 12.2 9.1 72 2.5 SW 9 17 5 9 1019.8 1019.8 0.0
21/10:30am 14.5 12.0 9.7 73 2.5 SSW 13 19 7 10 1019.7 1019.7 0.0
21/10:00am 14.9 12.9 10.1 73 2.5 SSW 11 17 6 9 1019.7 1019.7 0.0
21/09:30am 14.2 11.9 10.4 78 2.0 SW 13 19 7 10 1019.6 1019.6 0.0
21/09:00am 13.5 11.0 11.2 86 1.2 SW 15 19 8 10 1019.5 1019.5 6.4
21/08:30am 12.4 11.8 11.6 95 0.4 WNW 6 9 3 5 1019.4 1019.4 6.4
21/08:00am 11.3 10.2 10.5 95 0.4 WNW 7 11 4 6 1019.1 1019.1 6.4
21/07:30am 10.7 9.6 9.9 95 0.4 NW 6 9 3 5 1018.8 1018.8 6.4
21/07:00am 10.4 9.0 9.6 95 0.4 NNW 7 11 4 6 1018.6 1018.6 6.4
21/06:30am 10.1 8.2 9.2 94 0.4 NNW 9 11 5 6 1018.3 1018.3 6.4
21/06:00am 10.2 8.7 9.1 93 0.5 NW 7 11 4 6 1018.4 1018.4 6.2
21/05:30am 9.6 7.9 8.4 92 0.6 NNW 7 9 4 5 1018.0 1018.0 5.8
21/05:00am 9.4 7.3 8.3 93 0.5 NNW 9 11 5 6 1018.0 1018.0 5.8
21/04:30am 8.6 6.3 7.5 93 0.5 NNW 9 11 5 6 1018.1 1018.1 5.8
21/04:00am 8.2 5.8 7.0 92 0.6 NNW 9 11 5 6 1018.1 1018.1 5.8
21/03:30am 8.2 5.8 6.8 91 0.6 NNW 9 11 5 6 1018.2 1018.2 5.8
21/03:00am 8.5 6.6 6.8 89 0.8 NNW 6 7 3 4 1018.4 1018.4 5.8
21/02:30am 8.4 5.9 6.7 89 0.8 NNW 9 9 5 5 1018.5 1018.5 5.8
21/02:00am 9.3 6.5 6.9 85 1.1 WNW 11 13 6 7 1018.6 1018.6 5.8
21/01:30am 9.5 6.7 7.1 85 1.1 WNW 11 13 6 7 1018.7 1018.7 5.8
21/01:00am 9.7 7.7 7.0 83 1.3 WNW 7 9 4 5 1018.8 1018.8 5.8
21/12:30am 10.9 7.9 7.8 81 1.5 SW 13 17 7 9 1019.1 1019.1 5.8
21/12:00am 11.4 7.7 7.9 79 1.7 SW 17 24 9 13 1019.0 1019.0 5.8
 
Date/Time
EDT
Temp
°C
App
Temp
°C
Dew
Point
°C
Rel
Hum
%
Delta-T
°C
Wind Press
QNH
hPa
Press
MSL
hPa
Rain since
9am
mm
Dir  Spd
km/h
Gust
km/h
Spd
kts
Gust
kts
20/11:30pm 11.5 7.4 8.0 79 1.7 SW 19 26 10 14 1019.0 1019.0 5.8

Other Formats:

Comma delimited format used in spreadsheet applications
http://www.bom.gov.au/fwo/IDV60801/IDV60801.94886.axf

JavaScript Object Notation format (JSON) in row-major order
http://www.bom.gov.au/fwo/IDV60801/IDV60801.94886.json